Time;durP1;ratioP1;P1;durP2;ratioP2;P2;SDS_P1;SDS_P2;PMS_P1;PMS_P2;Temp;Humidity;BMP_temperature;BMP_pressure;BME280_temperature;BME280_humidity;BME280_pressure;Samples;Min_cycle;Max_cycle;Signal;HPM_P1;HPM_P2
2023/02/11 00:02:04;;;;;;;42.88;22.73;;;0.10;96.90;;;;;;5113756;28;20676;-80
2023/02/11 00:04:30;;;;;;;40.85;22.40;;;0.20;96.90;;;;;;5115018;28;20200;-82
2023/02/11 00:06:56;;;;;;;38.28;21.38;;;0.20;97.00;;;;;;5114837;28;20170;-80
2023/02/11 00:09:22;;;;;;;38.70;22.90;;;0.20;97.10;;;;;;5115090;28;20172;-82
2023/02/11 00:11:48;;;;;;;38.65;21.58;;;0.20;97.30;;;;;;5113126;28;20176;-80
2023/02/11 00:14:14;;;;;;;44.93;22.67;;;0.30;97.30;;;;;;5114828;28;20279;-80
2023/02/11 00:16:40;;;;;;;36.10;21.87;;;0.30;97.20;;;;;;5113635;28;20409;-81
2023/02/11 00:19:05;;;;;;;39.83;22.70;;;0.40;97.30;;;;;;5115298;28;20440;-81
2023/02/11 00:21:32;;;;;;;43.93;24.80;;;0.40;97.20;;;;;;5114887;28;20180;-82
2023/02/11 00:24:00;;;;;;;37.15;21.90;;;0.40;97.50;;;;;;5113615;28;20196;-79
2023/02/11 00:26:30;;;;;;;45.17;24.52;;;0.30;97.40;;;;;;5114716;28;20206;-80
2023/02/11 00:28:56;;;;;;;42.53;23.23;;;0.30;97.60;;;;;;5113663;28;20664;-82
2023/02/11 00:31:23;;;;;;;39.03;23.07;;;0.20;97.40;;;;;;5113495;28;20191;-81
2023/02/11 00:33:48;;;;;;;38.17;23.02;;;0.20;97.80;;;;;;5115123;28;20799;-81
2023/02/11 00:36:17;;;;;;;36.17;22.07;;;0.20;97.40;;;;;;5114613;28;20250;-80
2023/02/11 00:38:44;;;;;;;43.25;23.98;;;0.30;97.70;;;;;;5115104;28;20208;-81
2023/02/11 00:41:10;;;;;;;50.15;26.15;;;0.30;97.60;;;;;;5114635;28;20172;-80
2023/02/11 00:43:36;;;;;;;50.28;26.50;;;0.20;97.50;;;;;;5114305;28;20199;-82
2023/02/11 00:46:02;;;;;;;54.93;27.30;;;0.10;97.60;;;;;;5114360;28;20252;-82
2023/02/11 00:48:28;;;;;;;48.20;27.02;;;-0.10;97.80;;;;;;5113162;28;20794;-82
2023/02/11 00:50:54;;;;;;;57.33;29.37;;;-0.20;97.90;;;;;;5114378;28;20183;-80
2023/02/11 00:53:19;;;;;;;67.63;33.70;;;-0.20;98.20;;;;;;5114538;28;20206;-81
2023/02/11 00:55:45;;;;;;;72.43;33.50;;;-0.20;98.20;;;;;;5114264;28;20194;-81
2023/02/11 00:58:11;;;;;;;109.70;44.90;;;-0.10;98.30;;;;;;5114557;28;20200;-82
2023/02/11 01:00:37;;;;;;;136.07;55.97;;;-0.10;98.20;;;;;;5114210;28;20920;-81
2023/02/11 01:03:02;;;;;;;89.97;43.60;;;-0.10;98.20;;;;;;5114529;28;20188;-82
2023/02/11 01:05:28;;;;;;;104.00;48.33;;;-0.10;98.50;;;;;;5114351;28;20220;-81
2023/02/11 01:07:54;;;;;;;142.50;66.60;;;-0.10;98.40;;;;;;5114294;28;20223;-80
2023/02/11 01:10:20;;;;;;;117.93;56.67;;;0.00;98.40;;;;;;5114133;28;20176;-81
2023/02/11 01:12:46;;;;;;;84.73;43.80;;;0.00;99.00;;;;;;5114020;28;20223;-81
2023/02/11 01:15:14;;;;;;;62.45;33.28;;;0.00;98.50;;;;;;5114164;28;20171;-81
2023/02/11 01:17:40;;;;;;;47.10;27.50;;;0.00;98.50;;;;;;5112981;28;20202;-80
2023/02/11 01:20:10;;;;;;;48.03;29.17;;;0.00;98.40;;;;;;5112815;28;20588;-82
2023/02/11 01:22:38;;;;;;;47.83;29.25;;;0.00;98.60;;;;;;5114008;28;20198;-82
2023/02/11 01:25:05;;;;;;;49.60;26.73;;;-0.10;98.80;;;;;;5116716;28;20766;-82
2023/02/11 01:27:31;;;;;;;49.25;26.98;;;0.00;98.80;;;;;;5118190;28;20558;-81
2023/02/11 01:29:57;;;;;;;53.87;29.90;;;-0.10;98.80;;;;;;5116882;28;20232;-82
2023/02/11 01:32:23;;;;;;;55.13;31.40;;;0.00;98.70;;;;;;5118008;28;20431;-82
2023/02/11 01:34:49;;;;;;;46.97;29.30;;;-0.10;98.90;;;;;;5117069;28;20727;-81
2023/02/11 01:37:14;;;;;;;44.58;26.30;;;-0.20;99.00;;;;;;5116663;28;20231;-79
2023/02/11 01:39:40;;;;;;;44.23;25.87;;;-0.20;98.90;;;;;;5118042;28;20229;-81
2023/02/11 01:42:06;;;;;;;55.20;28.87;;;-0.20;99.00;;;;;;5118105;28;20427;-82
2023/02/11 01:44:38;;;;;;;47.83;27.13;;;-0.20;99.30;;;;;;5117768;28;20211;-82
2023/02/11 01:47:05;;;;;;;47.38;26.98;;;-0.20;99.60;;;;;;5117812;28;20188;-81
2023/02/11 01:49:35;;;;;;;47.78;30.15;;;-0.20;99.50;;;;;;5117828;28;20172;-79
2023/02/11 01:52:02;;;;;;;54.22;30.30;;;-0.30;99.80;;;;;;5117994;28;20206;-81
2023/02/11 01:57:23;;;;;;;55.90;32.65;;;-0.40;99.70;;;;;;5117724;28;20269;-82
2023/02/11 02:00:02;;;;;;;62.55;36.38;;;-0.50;99.80;;;;;;5116351;28;20172;-81
2023/02/11 02:02:51;;;;;;;51.35;31.35;;;-0.60;99.90;;;;;;5116218;28;20648;-80
2023/02/11 02:05:39;;;;;;;57.22;30.92;;;-0.60;99.90;;;;;;5117392;28;20203;-82
2023/02/11 02:08:20;;;;;;;55.25;28.00;;;-0.60;99.90;;;;;;5116013;28;20207;-80
2023/02/11 02:10:48;;;;;;;46.22;27.05;;;-0.60;99.90;;;;;;5117341;28;20167;-81
2023/02/11 02:13:15;;;;;;;48.75;28.48;;;-0.70;99.90;;;;;;5115827;28;20234;-81
2023/02/11 02:16:03;;;;;;;46.22;26.42;;;-0.80;99.90;;;;;;5117305;28;20179;-82
2023/02/11 02:18:38;;;;;;;48.25;26.75;;;-0.70;99.90;;;;;;5117094;28;20212;-81
2023/02/11 02:21:16;;;;;;;55.97;29.70;;;-0.70;99.90;;;;;;5115986;28;20719;-82
2023/02/11 02:24:26;;;;;;;46.30;27.63;;;-0.80;99.90;;;;;;5116042;28;20204;-80
2023/02/11 02:27:19;;;;;;;48.70;30.30;;;-0.90;99.90;;;;;;5054633;28;20261;-81
2023/02/11 02:30:03;;;;;;;54.22;30.73;;;-0.90;99.90;;;;;;5054259;28;20277;-82
2023/02/11 02:32:37;;;;;;;51.53;30.48;;;-0.80;99.90;;;;;;5102567;28;20269;-82
2023/02/11 02:35:29;;;;;;;55.53;29.38;;;-0.80;99.90;;;;;;5114945;28;20189;-81
2023/02/11 02:38:22;;;;;;;52.33;29.40;;;-0.80;99.90;;;;;;5115614;28;20665;-81
2023/02/11 02:41:05;;;;;;;48.08;26.17;;;-0.70;99.90;;;;;;5117132;28;20168;-81
2023/02/11 02:43:32;;;;;;;48.25;27.92;;;-0.80;99.90;;;;;;5115601;28;20236;-80
2023/02/11 02:46:15;;;;;;;51.00;29.30;;;-0.80;99.90;;;;;;5116602;28;20239;-81
2023/02/11 02:48:41;;;;;;;47.42;26.73;;;-0.80;99.90;;;;;;5115417;28;20211;-81
2023/02/11 02:51:13;;;;;;;49.13;27.97;;;-0.80;99.90;;;;;;5116763;28;20172;-81
2023/02/11 02:53:53;;;;;;;55.85;29.27;;;-0.90;99.90;;;;;;5115390;28;20427;-81
2023/02/11 02:56:53;;;;;;;52.72;30.92;;;-0.90;99.90;;;;;;5116662;28;20171;-82
2023/02/11 02:59:19;;;;;;;53.67;31.58;;;-0.90;99.90;;;;;;5115242;28;20190;-82
2023/02/11 03:01:59;;;;;;;60.37;30.73;;;-0.90;99.90;;;;;;5116639;28;20558;-81
2023/02/11 03:04:36;;;;;;;59.33;29.83;;;-0.90;99.90;;;;;;5115092;28;20719;-81
2023/02/11 03:07:25;;;;;;;57.50;30.42;;;-0.90;99.90;;;;;;5114928;28;20199;-82
2023/02/11 03:10:05;;;;;;;49.95;29.77;;;-0.90;99.90;;;;;;5115218;28;20314;-80
2023/02/11 03:12:33;;;;;;;53.55;30.58;;;-1.00;99.90;;;;;;5114699;28;20531;-81
2023/02/11 03:15:01;;;;;;;56.20;29.80;;;-1.10;99.90;;;;;;5116219;28;20203;-82
2023/02/11 03:17:28;;;;;;;48.17;28.42;;;-1.20;99.90;;;;;;5116104;28;20192;-80
2023/02/11 03:19:57;;;;;;;54.70;30.48;;;-1.20;99.90;;;;;;5114778;28;20577;-81
2023/02/11 03:22:33;;;;;;;53.28;30.30;;;-1.20;99.90;;;;;;5114648;28;20725;-81
2023/02/11 03:25:01;;;;;;;51.75;29.58;;;-1.10;99.90;;;;;;5114572;28;20211;-82
2023/02/11 03:27:37;;;;;;;53.55;32.55;;;-1.20;99.90;;;;;;5114767;28;20196;-81
2023/02/11 03:30:19;;;;;;;55.97;31.55;;;-1.30;99.90;;;;;;5114534;28;20184;-81
2023/02/11 03:33:00;;;;;;;54.45;29.30;;;-1.30;99.90;;;;;;5115888;28;20188;-82
2023/02/11 03:35:34;;;;;;;53.67;30.85;;;-1.30;99.90;;;;;;5115727;28;20169;-80
2023/02/11 03:38:24;;;;;;;51.28;29.63;;;-1.40;99.90;;;;;;5115924;28;20648;-81
2023/02/11 03:41:40;;;;;;;58.13;30.60;;;-1.40;99.90;;;;;;5115674;28;20263;-81
2023/02/11 03:44:06;;;;;;;46.38;29.02;;;-1.20;99.90;;;;;;5114162;28;20294;-81
2023/02/11 03:46:37;;;;;;;56.33;28.90;;;-1.20;99.90;;;;;;5114903;28;20656;-81
2023/02/11 03:49:08;;;;;;;53.58;30.40;;;-1.20;99.90;;;;;;5115702;28;20242;-81
2023/02/11 03:51:35;;;;;;;56.35;31.13;;;-1.10;99.90;;;;;;5115472;28;20529;-82
2023/02/11 03:54:06;;;;;;;51.08;29.40;;;-1.10;99.90;;;;;;5115867;28;20196;-81
2023/02/11 03:56:38;;;;;;;59.80;30.90;;;-1.10;99.90;;;;;;5115304;28;20667;-81
2023/02/11 03:59:03;;;;;;;43.63;27.52;;;-1.10;99.90;;;;;;5115238;28;20660;-81
2023/02/11 04:01:29;;;;;;;50.93;30.10;;;-1.10;99.90;;;;;;5113938;28;20182;-80
2023/02/11 04:03:55;;;;;;;59.83;30.67;;;-1.10;99.90;;;;;;5114052;28;20200;-81
2023/02/11 04:06:21;;;;;;;51.00;30.17;;;-1.10;99.90;;;;;;5115061;28;20546;-82
2023/02/11 04:08:46;;;;;;;51.63;29.03;;;-1.10;99.90;;;;;;5113903;28;20260;-81
2023/02/11 04:11:12;;;;;;;51.97;28.90;;;-1.10;99.90;;;;;;5113823;28;20558;-80
2023/02/11 04:13:38;;;;;;;57.42;28.60;;;-1.20;99.90;;;;;;5114953;28;20249;-80
2023/02/11 04:16:04;;;;;;;51.00;29.87;;;-1.20;99.90;;;;;;5113699;28;20175;-82
2023/02/11 04:18:29;;;;;;;50.10;29.33;;;-1.20;99.90;;;;;;5113827;28;20425;-81
2023/02/11 04:20:55;;;;;;;54.97;29.30;;;-1.20;99.90;;;;;;5114861;28;20404;-81
2023/02/11 04:23:21;;;;;;;51.93;29.07;;;-1.30;99.90;;;;;;5115047;28;20188;-81
2023/02/11 04:25:48;;;;;;;56.38;30.55;;;-1.40;99.90;;;;;;5114661;28;20678;-81
2023/02/11 04:28:14;;;;;;;58.55;30.05;;;-1.30;99.90;;;;;;5115008;28;20282;-82
2023/02/11 04:30:39;;;;;;;61.10;31.40;;;-1.30;99.90;;;;;;5114640;28;20234;-82
2023/02/11 04:33:05;;;;;;;57.03;31.73;;;-1.40;99.90;;;;;;5115025;28;20195;-80
2023/02/11 04:35:31;;;;;;;56.63;31.00;;;-1.50;99.90;;;;;;5114599;28;20412;-81
2023/02/11 04:37:56;;;;;;;59.60;32.83;;;-1.60;99.90;;;;;;5114701;28;20195;-81
2023/02/11 04:40:22;;;;;;;66.40;34.77;;;-1.70;99.90;;;;;;5113701;28;20172;-81
2023/02/11 04:42:48;;;;;;;72.20;35.17;;;-1.80;99.90;;;;;;5114641;28;20659;-81
2023/02/11 04:45:13;;;;;;;51.97;29.90;;;-1.80;99.90;;;;;;5113127;28;20231;-82
2023/02/11 04:47:39;;;;;;;59.73;32.30;;;-1.80;99.90;;;;;;5113074;28;20206;-80
2023/02/11 04:50:05;;;;;;;57.23;32.37;;;-1.90;99.90;;;;;;5114418;28;20180;-82
2023/02/11 04:52:31;;;;;;;57.35;30.95;;;-1.90;99.90;;;;;;5112984;28;20290;-82
2023/02/11 04:54:57;;;;;;;53.70;31.77;;;-1.80;99.90;;;;;;5113134;28;20275;-82
2023/02/11 04:57:22;;;;;;;51.87;28.80;;;-1.70;99.90;;;;;;5114351;28;20228;-80
2023/02/11 04:59:48;;;;;;;68.93;37.63;;;-1.60;99.90;;;;;;5112723;28;20474;-82
2023/02/11 05:02:14;;;;;;;69.13;38.30;;;-1.60;99.90;;;;;;5112862;28;20485;-82
2023/02/11 05:04:40;;;;;;;68.63;40.50;;;-1.60;99.90;;;;;;5112802;28;20257;-81
2023/02/11 05:07:06;;;;;;;70.20;41.20;;;-1.50;99.90;;;;;;5114118;28;20543;-82
2023/02/11 05:09:31;;;;;;;58.90;34.17;;;-1.50;99.90;;;;;;5114198;28;20577;-81
2023/02/11 05:11:57;;;;;;;78.27;41.40;;;-1.40;99.90;;;;;;5112679;28;20776;-80
2023/02/11 05:14:22;;;;;;;68.07;36.60;;;-1.50;99.90;;;;;;5114113;28;20232;-82
2023/02/11 05:16:48;;;;;;;62.73;34.23;;;-1.40;99.90;;;;;;5114060;28;20172;-82
2023/02/11 05:19:14;;;;;;;64.00;34.97;;;-1.30;99.90;;;;;;5113039;28;20275;-81
2023/02/11 05:21:40;;;;;;;66.43;33.77;;;-1.30;99.90;;;;;;5114001;28;20907;-81
2023/02/11 05:24:07;;;;;;;64.78;32.22;;;-1.30;99.90;;;;;;5112875;28;20203;-82
2023/02/11 05:26:32;;;;;;;60.70;32.40;;;-1.40;99.90;;;;;;5113972;28;20175;-81
2023/02/11 05:28:58;;;;;;;62.03;33.53;;;-1.50;99.90;;;;;;5112773;28;20195;-82
2023/02/11 05:31:24;;;;;;;65.37;32.40;;;-1.60;99.90;;;;;;5113913;28;20179;-81
2023/02/11 05:33:50;;;;;;;70.07;34.70;;;-1.60;99.90;;;;;;5112844;28;20527;-82
2023/02/11 05:36:16;;;;;;;72.40;35.47;;;-1.50;99.90;;;;;;5112585;28;20190;-83
2023/02/11 05:38:42;;;;;;;67.05;35.75;;;-1.60;99.90;;;;;;5112731;28;20204;-83
2023/02/11 05:41:09;;;;;;;78.60;39.90;;;-1.70;99.90;;;;;;5112626;28;20183;-82
2023/02/11 05:43:35;;;;;;;87.40;51.05;;;-1.70;99.90;;;;;;5114198;28;20586;-82
2023/02/11 05:46:02;;;;;;;101.20;54.65;;;-1.80;99.90;;;;;;5112472;28;20211;-82
2023/02/11 05:48:28;;;;;;;133.23;68.78;;;-1.80;99.90;;;;;;5112615;28;20200;-81
2023/02/11 05:50:54;;;;;;;119.43;57.70;;;-1.80;99.90;;;;;;5113794;28;20179;-82
2023/02/11 05:53:19;;;;;;;78.97;42.30;;;-1.70;99.90;;;;;;5113626;28;20435;-81
2023/02/11 05:55:45;;;;;;;80.07;40.03;;;-1.60;99.90;;;;;;5114157;28;20264;-82
2023/02/11 05:58:11;;;;;;;67.93;35.97;;;-1.60;99.90;;;;;;5112639;28;20283;-85
2023/02/11 06:00:37;;;;;;;65.67;35.80;;;-1.50;99.90;;;;;;5113754;28;20436;-81
2023/02/11 06:03:03;;;;;;;61.83;33.65;;;-1.60;99.90;;;;;;5113888;28;20204;-82
2023/02/11 06:05:30;;;;;;;58.13;33.05;;;-1.50;99.90;;;;;;5112293;28;20242;-81
2023/02/11 06:07:55;;;;;;;61.97;33.58;;;-1.50;99.90;;;;;;5113869;28;20280;-82
2023/02/11 06:10:21;;;;;;;56.27;31.80;;;-1.50;99.90;;;;;;5114320;28;20211;-82
2023/02/11 06:12:47;;;;;;;53.60;30.63;;;-1.50;99.90;;;;;;5117195;28;20202;-81
2023/02/11 06:15:13;;;;;;;57.38;34.63;;;-1.50;99.90;;;;;;5116171;28;20176;-82
2023/02/11 06:17:39;;;;;;;62.00;35.00;;;-1.40;99.90;;;;;;5115956;28;20723;-82
2023/02/11 06:20:07;;;;;;;78.23;43.63;;;-1.40;99.90;;;;;;5117333;28;20250;-81
2023/02/11 06:22:33;;;;;;;114.90;59.72;;;-1.50;99.90;;;;;;5115865;28;20432;-82
2023/02/11 06:24:59;;;;;;;118.90;63.30;;;-1.50;99.90;;;;;;5115840;28;20280;-81
2023/02/11 06:27:25;;;;;;;98.27;54.90;;;-1.50;99.90;;;;;;5117177;28;20700;-81
2023/02/11 06:29:53;;;;;;;64.90;38.92;;;-1.50;99.90;;;;;;5117104;28;20245;-81
2023/02/11 06:32:19;;;;;;;87.25;45.17;;;-1.50;99.90;;;;;;5117062;28;20196;-82
2023/02/11 06:34:45;;;;;;;83.40;46.17;;;-1.50;99.90;;;;;;5115615;28;20191;-82
2023/02/11 06:37:11;;;;;;;68.23;39.13;;;-1.30;99.90;;;;;;5115704;28;20664;-83
2023/02/11 06:39:37;;;;;;;74.10;42.97;;;-1.30;99.90;;;;;;5116783;28;20275;-81
2023/02/11 06:42:02;;;;;;;68.03;38.93;;;-1.20;99.90;;;;;;5116742;28;20271;-82
2023/02/11 06:44:28;;;;;;;63.00;35.70;;;-1.10;99.90;;;;;;5116589;28;20587;-82
2023/02/11 06:46:54;;;;;;;62.73;35.10;;;-0.90;99.90;;;;;;5116528;28;20387;-82
2023/02/11 06:49:19;;;;;;;61.57;33.93;;;-0.80;99.90;;;;;;5115417;28;20184;-81
2023/02/11 06:51:45;;;;;;;58.63;36.57;;;-0.80;99.90;;;;;;5116541;28;20225;-82
2023/02/11 06:54:11;;;;;;;59.60;33.40;;;-0.70;99.90;;;;;;5115569;28;20572;-82
2023/02/11 06:56:39;;;;;;;65.80;37.30;;;-0.70;99.90;;;;;;5116438;28;20282;-82
2023/02/11 06:59:06;;;;;;;60.83;33.20;;;-0.60;99.90;;;;;;5115370;28;20672;-81
2023/02/11 07:01:31;;;;;;;54.30;31.33;;;-0.60;99.90;;;;;;5115125;28;20229;-81
2023/02/11 07:03:57;;;;;;;56.43;29.87;;;-0.70;99.90;;;;;;5115193;28;20204;-82
2023/02/11 07:06:26;;;;;;;60.50;36.60;;;-0.60;99.90;;;;;;5116291;28;20687;-81
2023/02/11 07:08:53;;;;;;;64.05;37.05;;;-0.60;99.90;;;;;;5116697;28;20195;-82
2023/02/11 07:11:25;;;;;;;62.00;39.10;;;-0.60;99.90;;;;;;5114922;28;20592;-81
2023/02/11 07:13:53;;;;;;;64.07;37.30;;;-0.60;99.90;;;;;;5116235;28;20587;-81
2023/02/11 07:16:19;;;;;;;60.70;39.05;;;-0.50;99.90;;;;;;5116133;28;20180;-82
2023/02/11 07:18:46;;;;;;;62.58;36.67;;;-0.40;99.90;;;;;;5116514;28;20700;-81
2023/02/11 07:21:14;;;;;;;59.42;36.45;;;-0.20;99.90;;;;;;5115934;28;20195;-80
2023/02/11 07:23:40;;;;;;;58.75;36.15;;;0.00;99.90;;;;;;5114767;28;20192;-82
2023/02/11 07:26:09;;;;;;;61.30;34.60;;;0.20;99.90;;;;;;5114528;28;20227;-83
2023/02/11 07:28:36;;;;;;;53.72;32.55;;;0.30;99.90;;;;;;5114616;28;20198;-82
2023/02/11 07:31:11;;;;;;;61.22;35.40;;;0.30;99.90;;;;;;5115895;28;20179;-82
2023/02/11 07:33:37;;;;;;;62.05;34.00;;;0.50;99.90;;;;;;5114657;28;20195;-81
2023/02/11 07:36:04;;;;;;;60.83;37.75;;;0.60;99.90;;;;;;5115725;28;20186;-81
2023/02/11 07:38:31;;;;;;;59.42;35.88;;;0.90;99.90;;;;;;5116020;28;20192;-83
2023/02/11 07:41:01;;;;;;;70.63;38.13;;;1.10;99.90;;;;;;5115689;28;20203;-82
2023/02/11 07:43:28;;;;;;;64.28;36.17;;;1.30;99.90;;;;;;5115925;28;20270;-81
2023/02/11 07:45:54;;;;;;;60.30;35.83;;;1.50;99.90;;;;;;5114156;28;20299;-81
2023/02/11 07:48:20;;;;;;;65.17;38.33;;;1.50;99.90;;;;;;5115706;28;20675;-82
2023/02/11 07:50:45;;;;;;;57.63;36.60;;;1.50;99.90;;;;;;5115369;28;20387;-82
2023/02/11 07:53:11;;;;;;;60.57;32.97;;;1.90;99.90;;;;;;5115678;28;20188;-81
2023/02/11 07:55:37;;;;;;;48.10;32.77;;;2.30;99.90;;;;;;5115299;28;20289;-80
2023/02/11 07:58:02;;;;;;;54.60;30.90;;;2.70;99.90;;;;;;5115711;28;20532;-82
2023/02/11 08:00:28;;;;;;;53.33;32.27;;;3.30;99.90;;;;;;5114097;28;20180;-80
2023/02/11 08:02:56;;;;;;;52.00;35.43;;;4.00;99.90;;;;;;5115322;28;20294;-81
2023/02/11 08:05:22;;;;;;;54.38;30.77;;;4.80;99.90;;;;;;5115100;28;20311;-81
2023/02/11 08:07:51;;;;;;;78.83;44.50;;;5.40;99.90;;;;;;5115256;28;20303;-82
2023/02/11 08:10:17;;;;;;;47.28;29.35;;;6.00;99.90;;;;;;5113783;28;20924;-82
2023/02/11 08:12:42;;;;;;;63.77;36.93;;;6.80;99.90;;;;;;5114842;28;20201;-82
2023/02/11 08:15:08;;;;;;;102.90;53.73;;;7.40;99.90;;;;;;5113696;28;20180;-82
2023/02/11 08:17:35;;;;;;;143.70;78.47;;;8.20;99.40;;;;;;5114969;28;20196;-81
2023/02/11 08:20:01;;;;;;;48.00;27.70;;;9.00;97.10;;;;;;5114904;28;20172;-83
2023/02/11 08:22:29;;;;;;;51.75;32.15;;;9.60;96.00;;;;;;5115092;28;20195;-81
2023/02/11 08:24:57;;;;;;;48.72;30.55;;;10.30;94.60;;;;;;5117190;28;20257;-81
2023/02/11 08:27:23;;;;;;;56.00;35.03;;;10.90;93.10;;;;;;5113671;28;20307;-82
2023/02/11 08:29:48;;;;;;;52.40;33.47;;;11.70;92.00;;;;;;5113730;28;20203;-81
2023/02/11 08:32:14;;;;;;;45.77;29.90;;;12.20;90.50;;;;;;5114596;28;20428;-81
2023/02/11 08:34:40;;;;;;;52.50;36.17;;;12.50;89.50;;;;;;5112842;28;20511;-84
2023/02/11 08:37:06;;;;;;;43.30;29.50;;;12.60;86.30;;;;;;5113254;28;20619;-85
2023/02/11 08:39:31;;;;;;;42.37;29.40;;;13.00;86.80;;;;;;5113310;28;20255;-84
2023/02/11 08:41:57;;;;;;;55.70;37.00;;;13.40;83.80;;;;;;5114351;28;20416;-85
2023/02/11 08:44:23;;;;;;;46.47;30.37;;;13.80;83.30;;;;;;5113206;28;20267;-82
2023/02/11 08:46:50;;;;;;;39.27;27.70;;;14.10;80.40;;;;;;5114515;28;20577;-81
2023/02/11 08:49:16;;;;;;;35.80;25.77;;;14.30;79.10;;;;;;5113251;28;20420;-84
2023/02/11 08:51:42;;;;;;;40.13;29.20;;;14.40;77.40;;;;;;5114195;28;20977;-85
2023/02/11 08:54:08;;;;;;;37.67;27.43;;;14.40;77.20;;;;;;5113428;28;20815;-82
2023/02/11 08:56:36;;;;;;;35.83;26.10;;;14.40;76.10;;;;;;5114244;28;20415;-84
2023/02/11 08:59:02;;;;;;;37.63;26.90;;;14.50;76.40;;;;;;5114771;28;20444;-81
2023/02/11 09:01:29;;;;;;;38.60;26.03;;;14.40;75.40;;;;;;5114299;28;20740;-81
2023/02/11 09:03:56;;;;;;;38.17;26.13;;;14.30;74.90;;;;;;5113141;28;20444;-81
2023/02/11 09:06:23;;;;;;;40.90;27.87;;;14.30;75.10;;;;;;5112807;28;20815;-84
2023/02/11 09:08:51;;;;;;;38.73;26.37;;;14.40;74.50;;;;;;5114591;28;20523;-84
2023/02/11 09:11:19;;;;;;;37.93;25.17;;;14.30;74.50;;;;;;5112848;28;20428;-81
2023/02/11 09:13:45;;;;;;;35.33;24.57;;;14.20;74.50;;;;;;5114138;28;20544;-82
2023/02/11 09:16:23;;;;;;;50.17;36.03;;;14.10;74.30;;;;;;5113597;28;20408;-84
2023/02/11 09:18:49;;;;;;;39.83;25.83;;;13.70;74.40;;;;;;5115375;28;20435;-81
2023/02/11 09:21:16;;;;;;;32.77;24.50;;;13.80;74.70;;;;;;5114484;28;20795;-81
2023/02/11 09:23:43;;;;;;;41.70;25.13;;;13.80;75.60;;;;;;5114329;28;20516;-81
2023/02/11 09:26:18;;;;;;;37.37;24.43;;;13.90;73.60;;;;;;5113964;28;20451;-81
2023/02/11 09:28:45;;;;;;;36.33;24.40;;;13.80;73.50;;;;;;5112832;28;20455;-84
2023/02/11 09:31:13;;;;;;;35.53;23.90;;;13.90;74.00;;;;;;5112712;28;20405;-81
2023/02/11 09:33:46;;;;;;;33.63;23.63;;;14.20;73.30;;;;;;5114278;28;20940;-85
2023/02/11 09:36:18;;;;;;;37.30;25.00;;;14.30;73.80;;;;;;5113882;28;20401;-85
2023/02/11 09:38:44;;;;;;;36.03;23.00;;;14.30;73.10;;;;;;5114333;28;20447;-85
2023/02/11 09:41:26;;;;;;;30.93;22.70;;;14.40;72.00;;;;;;5113894;28;20916;-81
2023/02/11 09:43:57;;;;;;;33.93;23.07;;;14.10;71.80;;;;;;5112777;28;20455;-85
2023/02/11 09:46:24;;;;;;;33.43;24.50;;;13.60;72.70;;;;;;5116325;28;20447;-81
2023/02/11 09:48:53;;;;;;;35.93;23.90;;;13.20;73.20;;;;;;5116742;28;20978;-85
2023/02/11 09:51:29;;;;;;;39.57;25.77;;;12.90;73.60;;;;;;5117933;28;20928;-85
2023/02/11 09:53:59;;;;;;;53.47;35.70;;;12.30;74.10;;;;;;5116716;28;20435;-81
2023/02/11 09:56:26;;;;;;;35.90;24.10;;;11.70;75.20;;;;;;5116440;28;20761;-80
2023/02/11 09:58:52;;;;;;;42.08;27.20;;;11.30;75.50;;;;;;5117027;28;20451;-86
2023/02/11 10:01:33;;;;;;;38.83;25.50;;;11.00;76.40;;;;;;5118121;28;20164;-85
2023/02/11 10:04:15;;;;;;;37.55;25.00;;;10.80;77.40;;;;;;5116577;28;20467;-85
2023/02/11 10:06:43;;;;;;;33.45;22.30;;;10.70;77.10;;;;;;5117508;28;20513;-81
2023/02/11 10:09:33;;;;;;;35.90;22.80;;;10.50;77.20;;;;;;5116468;28;20267;-85
2023/02/11 10:12:31;;;;;;;40.22;23.42;;;10.30;77.40;;;;;;5116032;28;20526;-84
2023/02/11 10:15:20;;;;;;;35.60;22.65;;;10.30;77.60;;;;;;5117412;28;20191;-84
2023/02/11 10:18:15;;;;;;;40.88;23.45;;;10.20;78.50;;;;;;5117164;28;20200;-81
2023/02/11 10:21:07;;;;;;;40.20;22.73;;;10.20;78.50;;;;;;5116033;28;20674;-81
2023/02/11 10:23:38;;;;;;;32.15;19.27;;;10.20;78.50;;;;;;5116100;28;20242;-85
2023/02/11 10:26:14;;;;;;;34.83;21.60;;;10.20;78.00;;;;;;5117177;28;20629;-84
2023/02/11 10:28:45;;;;;;;39.50;23.27;;;10.10;78.20;;;;;;5115973;28;20257;-84
2023/02/11 10:31:23;;;;;;;38.63;23.65;;;10.00;78.10;;;;;;5115853;28;20668;-84
2023/02/11 10:33:59;;;;;;;35.85;24.10;;;9.90;78.60;;;;;;5117472;28;20218;-81
2023/02/11 10:36:36;;;;;;;35.92;21.60;;;9.70;78.80;;;;;;5116903;28;20168;-81
2023/02/11 10:39:10;;;;;;;47.25;26.80;;;9.50;79.30;;;;;;5115761;28;20199;-81
2023/02/11 10:41:41;;;;;;;39.90;25.35;;;9.30;79.80;;;;;;5116974;28;20582;-84
2023/02/11 10:44:07;;;;;;;35.88;22.52;;;9.20;79.90;;;;;;5115929;28;20207;-80
2023/02/11 10:46:36;;;;;;;32.77;21.37;;;9.30;79.90;;;;;;5116723;28;20246;-80
2023/02/11 10:49:02;;;;;;;41.88;26.10;;;9.40;79.50;;;;;;5117194;28;20228;-81
2023/02/11 10:51:30;;;;;;;38.47;24.60;;;9.20;80.30;;;;;;5116768;28;20164;-84
2023/02/11 10:54:18;;;;;;;35.35;23.88;;;9.00;80.10;;;;;;5116560;28;20439;-85
2023/02/11 10:56:57;;;;;;;42.00;24.35;;;8.90;80.60;;;;;;5117177;28;20648;-81
2023/02/11 10:59:39;;;;;;;50.65;27.48;;;8.80;80.80;;;;;;5116766;28;20612;-80
2023/02/11 11:02:30;;;;;;;42.63;24.33;;;8.70;81.00;;;;;;5116432;28;20187;-84
2023/02/11 11:04:59;;;;;;;37.22;21.17;;;8.60;81.00;;;;;;5087354;27;20314;-81
2023/02/11 11:07:30;;;;;;;43.60;26.55;;;8.60;81.10;;;;;;5116216;28;20196;-81
2023/02/11 11:10:01;;;;;;;42.67;26.30;;;8.60;81.70;;;;;;5116506;28;20172;-81
2023/02/11 11:12:46;;;;;;;36.40;22.98;;;8.60;82.00;;;;;;5116341;28;20601;-81
2023/02/11 11:15:28;;;;;;;38.22;22.83;;;8.70;81.70;;;;;;5116336;28;20641;-84
2023/02/11 11:18:20;;;;;;;40.55;24.25;;;8.80;81.50;;;;;;5116398;28;20644;-80
2023/02/11 11:20:59;;;;;;;40.83;24.05;;;8.70;81.80;;;;;;5113264;27;20611;-84
2023/02/11 11:23:27;;;;;;;44.08;27.70;;;8.80;82.50;;;;;;5116420;28;20648;-84
2023/02/11 11:26:09;;;;;;;74.25;44.40;;;9.10;82.30;;;;;;5114647;28;20208;-84
2023/02/11 11:28:56;;;;;;;41.63;27.13;;;9.30;83.20;;;;;;5115726;28;20195;-80
2023/02/11 11:31:27;;;;;;;36.67;23.33;;;9.40;80.80;;;;;;5101650;28;20271;-84
2023/02/11 11:33:57;;;;;;;42.70;24.80;;;9.50;80.40;;;;;;5116305;28;20200;-82
2023/02/11 11:36:34;;;;;;;37.08;22.08;;;9.40;80.60;;;;;;5115766;28;20621;-84
2023/02/11 11:39:03;;;;;;;41.92;24.60;;;9.30;80.40;;;;;;5116214;28;20187;-81
2023/02/11 11:41:33;;;;;;;37.55;23.15;;;9.40;80.80;;;;;;5114480;28;20698;-84
2023/02/11 11:44:34;;;;;;;45.35;28.13;;;9.40;80.70;;;;;;5114967;28;20200;-84
2023/02/11 11:47:17;;;;;;;35.25;21.08;;;9.30;80.50;;;;;;5113413;28;20577;-84
2023/02/11 11:49:54;;;;;;;37.88;24.55;;;9.20;79.80;;;;;;5113696;28;20246;-84
2023/02/11 11:52:45;;;;;;;37.60;26.52;;;9.00;80.10;;;;;;5115107;28;20200;-80
2023/02/11 11:55:41;;;;;;;34.58;22.27;;;8.90;80.80;;;;;;5113895;28;20176;-86
2023/02/11 11:58:18;;;;;;;31.90;20.13;;;8.70;81.30;;;;;;5100681;28;20723;-84
2023/02/11 12:00:49;;;;;;;31.58;19.98;;;8.80;81.00;;;;;;5113908;28;20163;-85
2023/02/11 12:03:28;;;;;;;38.78;23.33;;;8.90;80.90;;;;;;5095904;28;20683;-81
2023/02/11 12:06:14;;;;;;;42.72;25.17;;;8.90;81.00;;;;;;5094822;28;20215;-81
2023/02/11 12:08:40;;;;;;;37.95;24.67;;;8.80;80.90;;;;;;5112505;28;20195;-84
2023/02/11 12:11:22;;;;;;;34.00;21.90;;;8.70;80.80;;;;;;5112977;28;20235;-84
2023/02/11 12:14:20;;;;;;;41.20;23.73;;;8.70;81.10;;;;;;5112764;28;20708;-80
2023/02/11 12:17:10;;;;;;;39.10;24.63;;;8.80;81.20;;;;;;5094553;28;20256;-81
2023/02/11 12:19:47;;;;;;;37.47;23.80;;;8.80;81.30;;;;;;5096174;28;20616;-81
2023/02/11 12:22:22;;;;;;;37.78;22.45;;;8.80;81.80;;;;;;5114884;28;20203;-84
2023/02/11 12:25:20;;;;;;;42.33;22.98;;;8.70;81.80;;;;;;5115107;28;20290;-85
2023/02/11 12:27:54;;;;;;;37.80;21.63;;;8.80;82.00;;;;;;5058969;28;20385;-80
2023/02/11 12:30:41;;;;;;;35.13;21.17;;;8.90;81.20;;;;;;5096804;28;20178;-84
2023/02/11 12:33:16;;;;;;;39.72;22.67;;;8.90;81.20;;;;;;5096950;28;20759;-81
2023/02/11 12:36:06;;;;;;;43.22;24.48;;;9.00;81.50;;;;;;5094220;28;20289;-80
2023/02/11 12:38:37;;;;;;;42.33;23.70;;;9.00;81.40;;;;;;5094046;28;20261;-85
2023/02/11 12:41:09;;;;;;;41.00;22.92;;;9.10;81.20;;;;;;5112499;28;20250;-81
2023/02/11 12:43:41;;;;;;;43.33;24.90;;;9.10;81.00;;;;;;5112154;28;20279;-81
2023/02/11 12:46:29;;;;;;;39.67;23.77;;;9.10;81.80;;;;;;5094095;28;20753;-80
2023/02/11 12:49:14;;;;;;;35.72;23.27;;;9.10;81.80;;;;;;5094988;28;20278;-81
2023/02/11 12:51:51;;;;;;;38.33;22.60;;;9.10;81.80;;;;;;5096194;28;20206;-81
2023/02/11 12:54:20;;;;;;;39.67;25.42;;;9.20;81.60;;;;;;5114895;28;20175;-85